This is the latest recevied weather packets stored in our database for station/object IU5GBO-13. If no packets are shown the sender has not sent any weather packets the latest 10 day(s).
| Time | Temp. | Humidity | Pressure | Rain* | Wind** | Luminosity | Snow |
|---|---|---|---|---|---|---|---|
| 1777516573 | 11.67° C | 62% | 1018 hPa | - | - | - | - |
| 1777515973 | 11.11° C | 65% | 1018 hPa | - | - | - | - |
| 1777515372 | 10.56° C | 65% | 1017.9 hPa | - | - | - | - |
| 1777514772 | 10.56° C | 65% | 1017.8 hPa | - | - | - | - |
| 1777514172 | 11.11° C | 64% | 1017.6 hPa | - | - | - | - |
| 1777513572 | 11.67° C | 62% | 1017.6 hPa | - | - | - | - |
| 1777512972 | 11.67° C | 62% | 1017.6 hPa | - | - | - | - |
| 1777512373 | 11.67° C | 62% | 1017.6 hPa | - | - | - | - |
| 1777511772 | 11.67° C | 63% | 1017.4 hPa | - | - | - | - |
| 1777511172 | 11.11° C | 64% | 1017.6 hPa | - | - | - | - |
| 1777510573 | 11.67° C | 63% | 1017.6 hPa | - | - | - | - |
| 1777509372 | 11.11° C | 65% | 1017.8 hPa | - | - | - | - |
| 1777508172 | 11.67° C | 64% | 1017.6 hPa | - | - | - | - |
| 1777507573 | 11.67° C | 65% | 1017.7 hPa | - | - | - | - |
| 1777506972 | 11.11° C | 66% | 1017.7 hPa | - | - | - | - |
| 1777499773 | 13.89° C | 61% | 1017.1 hPa | - | - | - | - |
| 1777493173 | 15.56° C | 61% | 1016.7 hPa | - | - | - | - |
| 1777491373 | 17.22° C | 57% | 1016.1 hPa | - | - | - | - |
| 1777490773 | 17.22° C | 57% | 1016 hPa | - | - | - | - |
| 1777488373 | 17.78° C | 57% | 1015.6 hPa | - | - | - | - |
| 1777484173 | 20° C | 48% | 1015.4 hPa | - | - | - | - |
| 1777482973 | 20.56° C | 43% | 1015.5 hPa | - | - | - | - |
| 1777479972 | 21.67° C | 36% | 1015.5 hPa | - | - | - | - |
| 1777472772 | 23.33° C | 29% | 1015.8 hPa | - | - | - | - |
| 1777472172 | 23.33° C | 27% | 1016 hPa | - | - | - | - |
* Rain since midnight (hover to see other rain measurements)
** Current wind speed in m/s (hover to see current wind gust speed)